Aviation Digital Data Service (ADDS)

Output produced by METARs form (0557 UTC 18 January 2018)
found at http://www.aviationweather.gov/adds/metars/
 
METAR text: KFAM 180556Z AUTO 23003KT 10SM CLR M10/M14 A3048 RMK AO2 SLP334 T11001139 11056 21117 410111167 56014 FZRANO
Conditions at: KFAM (FARMINGTON , MO, US) observed 0556 UTC 18 January 2018
Temperature: -10.0°C (14°F)
Dewpoint: -13.9°C (7°F) [RH = 73%]
Pressure (altimeter): 30.48 inches Hg (1032.3 mb)
[Sea-level pressure: 1033.4 mb]
Winds: from the SW (230 degrees) at 3 MPH (3 knots; 1.6 m/s)
Visibility: 10 or more miles (16+ km)
Ceiling: at least 12,000 feet AGL
Clouds: sky clear below 12,000 feet AGL
Weather: automated observation with no human augmentation;
there may or may not be significant weather present at this time